Details From MMUN - Cancun Intl
To MHTG - Tegucigalpa Toncontin Intl
Flight Number -
Tags Generated
Created
Modified
Stats Distance 421 nm / 780 km
Max Altitude 0 ft / 0 m
Waypoints 3
Social Downloads 7
Likes 0
Share VATSIM

Download

Looking for another format? Having issues loading an existing format? Contact us
Advertisement - Login to hide

Notes

Generated

Route

MMUN TNT MHTG

ID Type Via Altitude Latitude Longitude Leg Dist Tot Dist Heading (true) Name
O MMUN APT - 0 ft / 0 m 21.05496˚ -86.88084˚ - 0 nm - -
TNT NDB - 0 ft / 0 m 14.06091˚ -87.22047˚ 420 nm 420 nm 183° / 183° TONCONTIN NDB
O MHTG APT - 0 ft / 0 m 14.05292˚ -87.22000˚ 0 nm 420 nm 177° / 177° -

Altitude Profile

Advertisement - Login to hide

Weather


0- 5 10 15 20 25 30 35+ Temperature / ° C

Clouds and Precipitation
Forecast for 2017-12-11 06:00 UTC. Updated an hour ago

Ground ~20,000 ft ~40,000 ft Winds

MMUN

Details ICAO MMUN (CUN)
Name Cancun International
Region Mexico
Timezone America/Cancun (UTC-5.0)
Stats Elevation 24 ft / 7 m (AMSL)
Location 21.042287° -86.873333°
Runways 2
Magnetic Variation 1.879° W

METAR

MMUN 110545Z 33005KT 7SM FEW080 16/14 A3027 RMK SLP57 56008 917 8/030 SC

Decode

TAF

TAF MMUN 102318Z 1100/1206 33005KT P6SM SCT020 SCT080 TX26/1122Z TN15/1112Z FM111600 03010KT P6SM SCT015 FM120200 03005KT P6SM SCT015

Decode

Departure Runways

ID Width Length Bearing (true) Bearing (mag) Surface Threshold Offset Overrun Length
12L 148 ft / 45 m 9,150 ft / 2,789 m 123.62° 125.50° Asphalt 0 ft / 0 m 200 ft / 61 m
12R 190 ft / 58 m 11,459 ft / 3,493 m 123.84° 125.72° Asphalt 0 ft / 0 m 200 ft / 61 m
30L 190 ft / 58 m 11,459 ft / 3,493 m 303.85° 305.73° Asphalt 0 ft / 0 m 200 ft / 61 m
30R 148 ft / 45 m 9,150 ft / 2,789 m 303.63° 305.51° Asphalt 0 ft / 0 m 200 ft / 61 m

MHTG

Details ICAO MHTG (TGU)
Name Tegucigalpa Toncontin Intl
Region Honduras
Timezone America/Tegucigalpa (UTC-6.0)
Stats Elevation 3,294 ft / 1,004 m (AMSL)
Location 14.060883° -87.217197°
Runways 1
Magnetic Variation 0.658° W

METAR

MHTG 110600Z 36006KT 9999 BKN026 SCT200 14/10 Q1026 A3030 NOSIG

Decode

TAF

Not found

Destination Runways

ID Width Length Bearing (true) Bearing (mag) Surface Threshold Offset Overrun Length
02 148 ft / 45 m 6,140 ft / 1,872 m 18.87° 19.53° Asphalt 670 ft / 204 m 100 ft / 30 m
20 148 ft / 45 m 6,140 ft / 1,872 m 198.87° 199.53° Asphalt 0 ft / 0 m 200 ft / 61 m

Popular Alternatives